sensor_id;sensor_type;location;lat;lon;timestamp;P1;durP1;ratioP1;P2;durP2;ratioP2
56233;SDS011;42141;53.240;6.580;2023-04-25T00:01:38;26.15;;;3.38;;
56233;SDS011;42141;53.240;6.580;2023-04-25T00:04:04;14.15;;;2.45;;
56233;SDS011;42141;53.240;6.580;2023-04-25T00:06:36;26.75;;;3.22;;
56233;SDS011;42141;53.240;6.580;2023-04-25T00:09:05;18.98;;;3.15;;
56233;SDS011;42141;53.240;6.580;2023-04-25T00:11:36;16.83;;;2.75;;
56233;SDS011;42141;53.240;6.580;2023-04-25T00:14:02;23.00;;;3.30;;
56233;SDS011;42141;53.240;6.580;2023-04-25T00:16:28;15.00;;;2.72;;
56233;SDS011;42141;53.240;6.580;2023-04-25T00:18:58;23.30;;;3.60;;
56233;SDS011;42141;53.240;6.580;2023-04-25T00:21:24;37.08;;;4.85;;
56233;SDS011;42141;53.240;6.580;2023-04-25T00:23:52;19.70;;;3.40;;
56233;SDS011;42141;53.240;6.580;2023-04-25T00:26:18;18.15;;;2.38;;
56233;SDS011;42141;53.240;6.580;2023-04-25T00:28:43;20.60;;;3.33;;
56233;SDS011;42141;53.240;6.580;2023-04-25T00:31:10;12.63;;;1.70;;
56233;SDS011;42141;53.240;6.580;2023-04-25T00:33:35;17.83;;;3.47;;
56233;SDS011;42141;53.240;6.580;2023-04-25T00:36:01;14.05;;;1.83;;
56233;SDS011;42141;53.240;6.580;2023-04-25T00:38:27;16.92;;;2.92;;
56233;SDS011;42141;53.240;6.580;2023-04-25T00:40:52;15.15;;;2.35;;
56233;SDS011;42141;53.240;6.580;2023-04-25T00:43:20;15.60;;;2.20;;
56233;SDS011;42141;53.240;6.580;2023-04-25T00:45:46;12.00;;;2.47;;
56233;SDS011;42141;53.240;6.580;2023-04-25T00:48:14;9.90;;;1.95;;
56233;SDS011;42141;53.240;6.580;2023-04-25T00:50:40;11.02;;;2.28;;
56233;SDS011;42141;53.240;6.580;2023-04-25T00:53:06;18.50;;;1.90;;
56233;SDS011;42141;53.240;6.580;2023-04-25T00:55:32;10.95;;;2.65;;
56233;SDS011;42141;53.240;6.580;2023-04-25T00:57:59;23.13;;;4.05;;
56233;SDS011;42141;53.240;6.580;2023-04-25T01:00:25;12.32;;;2.38;;
56233;SDS011;42141;53.240;6.580;2023-04-25T01:02:51;11.43;;;1.92;;
56233;SDS011;42141;53.240;6.580;2023-04-25T01:05:17;20.67;;;3.50;;
56233;SDS011;42141;53.240;6.580;2023-04-25T01:07:44;16.50;;;1.95;;
56233;SDS011;42141;53.240;6.580;2023-04-25T01:10:10;19.77;;;2.28;;
56233;SDS011;42141;53.240;6.580;2023-04-25T01:12:36;14.55;;;2.30;;
56233;SDS011;42141;53.240;6.580;2023-04-25T01:15:02;15.05;;;2.50;;
56233;SDS011;42141;53.240;6.580;2023-04-25T01:17:28;16.38;;;2.78;;
56233;SDS011;42141;53.240;6.580;2023-04-25T01:19:54;12.20;;;2.10;;
56233;SDS011;42141;53.240;6.580;2023-04-25T01:22:20;27.63;;;4.30;;
56233;SDS011;42141;53.240;6.580;2023-04-25T01:24:46;14.45;;;2.17;;
56233;SDS011;42141;53.240;6.580;2023-04-25T01:27:12;11.30;;;1.75;;
56233;SDS011;42141;53.240;6.580;2023-04-25T01:29:38;13.15;;;1.90;;
56233;SDS011;42141;53.240;6.580;2023-04-25T01:32:04;17.20;;;2.90;;
56233;SDS011;42141;53.240;6.580;2023-04-25T01:34:31;14.38;;;2.03;;
56233;SDS011;42141;53.240;6.580;2023-04-25T01:36:57;17.95;;;2.17;;
56233;SDS011;42141;53.240;6.580;2023-04-25T01:39:25;16.58;;;2.00;;
56233;SDS011;42141;53.240;6.580;2023-04-25T01:41:51;20.15;;;2.75;;
56233;SDS011;42141;53.240;6.580;2023-04-25T01:44:17;9.40;;;2.45;;
56233;SDS011;42141;53.240;6.580;2023-04-25T01:46:43;17.08;;;2.20;;
56233;SDS011;42141;53.240;6.580;2023-04-25T01:49:09;17.33;;;2.67;;
56233;SDS011;42141;53.240;6.580;2023-04-25T01:51:34;18.75;;;2.85;;
56233;SDS011;42141;53.240;6.580;2023-04-25T01:54:00;24.52;;;2.67;;
56233;SDS011;42141;53.240;6.580;2023-04-25T01:56:29;20.65;;;2.92;;
56233;SDS011;42141;53.240;6.580;2023-04-25T01:59:01;14.82;;;1.90;;
56233;SDS011;42141;53.240;6.580;2023-04-25T02:01:27;14.25;;;2.15;;
56233;SDS011;42141;53.240;6.580;2023-04-25T02:03:52;21.98;;;3.95;;
56233;SDS011;42141;53.240;6.580;2023-04-25T02:06:18;25.70;;;4.20;;
56233;SDS011;42141;53.240;6.580;2023-04-25T02:08:44;24.13;;;3.70;;
56233;SDS011;42141;53.240;6.580;2023-04-25T02:11:09;20.90;;;3.97;;
56233;SDS011;42141;53.240;6.580;2023-04-25T02:13:35;17.25;;;2.13;;
56233;SDS011;42141;53.240;6.580;2023-04-25T02:16:00;19.60;;;2.33;;
56233;SDS011;42141;53.240;6.580;2023-04-25T02:18:26;19.95;;;3.03;;
56233;SDS011;42141;53.240;6.580;2023-04-25T02:20:52;23.65;;;3.13;;
56233;SDS011;42141;53.240;6.580;2023-04-25T02:23:18;19.95;;;3.10;;
56233;SDS011;42141;53.240;6.580;2023-04-25T02:25:44;15.85;;;2.40;;
56233;SDS011;42141;53.240;6.580;2023-04-25T02:28:10;11.30;;;1.80;;
56233;SDS011;42141;53.240;6.580;2023-04-25T02:30:36;14.95;;;1.98;;
56233;SDS011;42141;53.240;6.580;2023-04-25T02:33:02;15.18;;;2.10;;
56233;SDS011;42141;53.240;6.580;2023-04-25T02:35:27;17.88;;;2.33;;
56233;SDS011;42141;53.240;6.580;2023-04-25T02:37:53;15.25;;;1.85;;
56233;SDS011;42141;53.240;6.580;2023-04-25T02:40:19;17.15;;;2.22;;
56233;SDS011;42141;53.240;6.580;2023-04-25T02:42:44;16.20;;;1.80;;
56233;SDS011;42141;53.240;6.580;2023-04-25T02:45:13;18.40;;;2.25;;
56233;SDS011;42141;53.240;6.580;2023-04-25T02:47:39;12.63;;;1.90;;
56233;SDS011;42141;53.240;6.580;2023-04-25T02:50:05;12.00;;;1.77;;
56233;SDS011;42141;53.240;6.580;2023-04-25T02:52:31;10.23;;;1.60;;
56233;SDS011;42141;53.240;6.580;2023-04-25T02:54:56;11.82;;;2.22;;
56233;SDS011;42141;53.240;6.580;2023-04-25T02:57:22;18.42;;;2.00;;
56233;SDS011;42141;53.240;6.580;2023-04-25T02:59:48;18.92;;;2.42;;
56233;SDS011;42141;53.240;6.580;2023-04-25T03:02:13;11.00;;;1.90;;
56233;SDS011;42141;53.240;6.580;2023-04-25T03:04:39;16.58;;;3.10;;
56233;SDS011;42141;53.240;6.580;2023-04-25T03:07:05;14.50;;;2.30;;
56233;SDS011;42141;53.240;6.580;2023-04-25T03:09:31;13.25;;;2.35;;
56233;SDS011;42141;53.240;6.580;2023-04-25T03:11:56;20.80;;;3.40;;
56233;SDS011;42141;53.240;6.580;2023-04-25T03:14:22;12.00;;;1.73;;
56233;SDS011;42141;53.240;6.580;2023-04-25T03:16:48;13.05;;;1.83;;
56233;SDS011;42141;53.240;6.580;2023-04-25T03:19:13;17.90;;;2.22;;
56233;SDS011;42141;53.240;6.580;2023-04-25T03:21:42;9.50;;;1.20;;
56233;SDS011;42141;53.240;6.580;2023-04-25T03:24:07;11.43;;;1.75;;
56233;SDS011;42141;53.240;6.580;2023-04-25T03:26:33;11.73;;;1.63;;
56233;SDS011;42141;53.240;6.580;2023-04-25T03:28:59;12.18;;;1.70;;
56233;SDS011;42141;53.240;6.580;2023-04-25T03:31:25;19.38;;;2.53;;
56233;SDS011;42141;53.240;6.580;2023-04-25T03:33:51;9.93;;;1.80;;
56233;SDS011;42141;53.240;6.580;2023-04-25T03:36:16;15.48;;;2.45;;
56233;SDS011;42141;53.240;6.580;2023-04-25T03:38:42;12.30;;;1.48;;
56233;SDS011;42141;53.240;6.580;2023-04-25T03:41:08;11.55;;;1.23;;
56233;SDS011;42141;53.240;6.580;2023-04-25T03:43:33;12.45;;;1.35;;
56233;SDS011;42141;53.240;6.580;2023-04-25T03:45:59;9.38;;;1.38;;
56233;SDS011;42141;53.240;6.580;2023-04-25T03:48:25;14.10;;;1.50;;
56233;SDS011;42141;53.240;6.580;2023-04-25T03:50:52;13.05;;;1.63;;
56233;SDS011;42141;53.240;6.580;2023-04-25T03:53:18;9.98;;;1.58;;
56233;SDS011;42141;53.240;6.580;2023-04-25T03:55:44;18.85;;;2.00;;
56233;SDS011;42141;53.240;6.580;2023-04-25T03:58:10;18.65;;;1.75;;
56233;SDS011;42141;53.240;6.580;2023-04-25T04:00:36;10.57;;;2.00;;
56233;SDS011;42141;53.240;6.580;2023-04-25T04:03:01;16.55;;;4.10;;
56233;SDS011;42141;53.240;6.580;2023-04-25T04:05:27;13.50;;;1.63;;
56233;SDS011;42141;53.240;6.580;2023-04-25T04:07:53;12.13;;;1.95;;
56233;SDS011;42141;53.240;6.580;2023-04-25T04:10:20;13.27;;;1.52;;
56233;SDS011;42141;53.240;6.580;2023-04-25T04:12:46;8.85;;;1.65;;
56233;SDS011;42141;53.240;6.580;2023-04-25T04:15:12;12.20;;;1.80;;
56233;SDS011;42141;53.240;6.580;2023-04-25T04:17:37;13.13;;;2.10;;
56233;SDS011;42141;53.240;6.580;2023-04-25T04:20:03;11.57;;;1.75;;
56233;SDS011;42141;53.240;6.580;2023-04-25T04:22:31;18.70;;;2.45;;
56233;SDS011;42141;53.240;6.580;2023-04-25T04:24:56;12.27;;;1.80;;
56233;SDS011;42141;53.240;6.580;2023-04-25T04:27:23;8.75;;;1.48;;
56233;SDS011;42141;53.240;6.580;2023-04-25T04:29:49;8.90;;;1.77;;
56233;SDS011;42141;53.240;6.580;2023-04-25T04:32:17;15.15;;;2.65;;
56233;SDS011;42141;53.240;6.580;2023-04-25T04:34:43;9.55;;;1.95;;
56233;SDS011;42141;53.240;6.580;2023-04-25T04:37:09;9.93;;;1.67;;
56233;SDS011;42141;53.240;6.580;2023-04-25T04:39:35;10.27;;;1.77;;
56233;SDS011;42141;53.240;6.580;2023-04-25T04:42:02;10.43;;;1.85;;
56233;SDS011;42141;53.240;6.580;2023-04-25T04:44:28;14.88;;;2.50;;
56233;SDS011;42141;53.240;6.580;2023-04-25T04:46:57;10.68;;;1.80;;
56233;SDS011;42141;53.240;6.580;2023-04-25T04:49:23;15.25;;;1.90;;
56233;SDS011;42141;53.240;6.580;2023-04-25T04:51:49;11.18;;;1.60;;
56233;SDS011;42141;53.240;6.580;2023-04-25T04:54:15;8.43;;;1.40;;
56233;SDS011;42141;53.240;6.580;2023-04-25T04:56:40;19.10;;;2.47;;
56233;SDS011;42141;53.240;6.580;2023-04-25T04:59:07;18.00;;;3.42;;
56233;SDS011;42141;53.240;6.580;2023-04-25T05:01:32;11.52;;;1.40;;
56233;SDS011;42141;53.240;6.580;2023-04-25T05:04:00;18.65;;;4.18;;
56233;SDS011;42141;53.240;6.580;2023-04-25T05:06:27;10.30;;;1.65;;
56233;SDS011;42141;53.240;6.580;2023-04-25T05:08:54;7.38;;;1.00;;
56233;SDS011;42141;53.240;6.580;2023-04-25T05:11:20;3.92;;;1.00;;
56233;SDS011;42141;53.240;6.580;2023-04-25T05:13:46;3.05;;;0.77;;
56233;SDS011;42141;53.240;6.580;2023-04-25T05:16:12;7.40;;;0.60;;
56233;SDS011;42141;53.240;6.580;2023-04-25T05:18:39;3.53;;;0.80;;
56233;SDS011;42141;53.240;6.580;2023-04-25T05:21:05;3.15;;;1.13;;
56233;SDS011;42141;53.240;6.580;2023-04-25T05:23:31;4.43;;;0.70;;
56233;SDS011;42141;53.240;6.580;2023-04-25T05:25:58;8.20;;;0.88;;
56233;SDS011;42141;53.240;6.580;2023-04-25T05:28:24;8.98;;;1.10;;
56233;SDS011;42141;53.240;6.580;2023-04-25T05:30:49;5.68;;;1.55;;
56233;SDS011;42141;53.240;6.580;2023-04-25T05:33:15;7.40;;;1.20;;
56233;SDS011;42141;53.240;6.580;2023-04-25T05:35:41;9.73;;;0.77;;
56233;SDS011;42141;53.240;6.580;2023-04-25T05:38:07;7.65;;;0.95;;
56233;SDS011;42141;53.240;6.580;2023-04-25T05:40:33;5.30;;;0.93;;
56233;SDS011;42141;53.240;6.580;2023-04-25T05:42:59;6.07;;;1.13;;
56233;SDS011;42141;53.240;6.580;2023-04-25T05:45:24;13.80;;;1.55;;
56233;SDS011;42141;53.240;6.580;2023-04-25T05:47:50;14.93;;;0.80;;
56233;SDS011;42141;53.240;6.580;2023-04-25T05:50:16;10.20;;;0.98;;
56233;SDS011;42141;53.240;6.580;2023-04-25T05:52:41;12.80;;;1.13;;
56233;SDS011;42141;53.240;6.580;2023-04-25T05:55:07;13.27;;;1.45;;
56233;SDS011;42141;53.240;6.580;2023-04-25T05:57:33;12.52;;;1.40;;
56233;SDS011;42141;53.240;6.580;2023-04-25T05:59:59;9.35;;;1.25;;
56233;SDS011;42141;53.240;6.580;2023-04-25T06:02:25;8.05;;;1.15;;
56233;SDS011;42141;53.240;6.580;2023-04-25T06:04:51;6.97;;;0.98;;
56233;SDS011;42141;53.240;6.580;2023-04-25T06:07:17;13.70;;;1.20;;
56233;SDS011;42141;53.240;6.580;2023-04-25T06:09:43;4.57;;;0.85;;
56233;SDS011;42141;53.240;6.580;2023-04-25T06:12:09;5.97;;;0.82;;
56233;SDS011;42141;53.240;6.580;2023-04-25T06:14:35;2.35;;;0.63;;
56233;SDS011;42141;53.240;6.580;2023-04-25T06:17:03;7.20;;;0.85;;
56233;SDS011;42141;53.240;6.580;2023-04-25T06:19:33;3.88;;;0.57;;
56233;SDS011;42141;53.240;6.580;2023-04-25T06:21:59;11.80;;;0.88;;
56233;SDS011;42141;53.240;6.580;2023-04-25T06:24:25;2.85;;;0.40;;
56233;SDS011;42141;53.240;6.580;2023-04-25T06:26:51;4.63;;;1.25;;
56233;SDS011;42141;53.240;6.580;2023-04-25T06:29:17;7.55;;;0.80;;
56233;SDS011;42141;53.240;6.580;2023-04-25T06:31:44;3.42;;;0.70;;
56233;SDS011;42141;53.240;6.580;2023-04-25T06:34:09;8.60;;;2.60;;
56233;SDS011;42141;53.240;6.580;2023-04-25T06:36:35;7.93;;;1.35;;
56233;SDS011;42141;53.240;6.580;2023-04-25T06:39:01;10.75;;;0.90;;
56233;SDS011;42141;53.240;6.580;2023-04-25T06:41:27;7.57;;;1.35;;
56233;SDS011;42141;53.240;6.580;2023-04-25T06:43:53;10.80;;;1.20;;
56233;SDS011;42141;53.240;6.580;2023-04-25T06:46:18;8.40;;;0.80;;
56233;SDS011;42141;53.240;6.580;2023-04-25T06:48:44;9.30;;;1.50;;
56233;SDS011;42141;53.240;6.580;2023-04-25T06:51:10;10.35;;;1.42;;
56233;SDS011;42141;53.240;6.580;2023-04-25T06:53:36;10.52;;;1.38;;
56233;SDS011;42141;53.240;6.580;2023-04-25T06:56:01;12.13;;;1.90;;
56233;SDS011;42141;53.240;6.580;2023-04-25T06:58:28;7.22;;;1.13;;
56233;SDS011;42141;53.240;6.580;2023-04-25T07:00:53;9.68;;;2.45;;
56233;SDS011;42141;53.240;6.580;2023-04-25T07:03:19;11.27;;;1.08;;
56233;SDS011;42141;53.240;6.580;2023-04-25T07:05:45;9.98;;;1.58;;
56233;SDS011;42141;53.240;6.580;2023-04-25T07:08:11;9.63;;;1.27;;
56233;SDS011;42141;53.240;6.580;2023-04-25T07:10:37;5.82;;;1.10;;
56233;SDS011;42141;53.240;6.580;2023-04-25T07:13:03;8.50;;;1.30;;
56233;SDS011;42141;53.240;6.580;2023-04-25T07:15:29;9.95;;;1.20;;
56233;SDS011;42141;53.240;6.580;2023-04-25T07:17:54;6.43;;;1.33;;
56233;SDS011;42141;53.240;6.580;2023-04-25T07:20:20;13.38;;;1.52;;
56233;SDS011;42141;53.240;6.580;2023-04-25T07:22:46;10.77;;;1.38;;
56233;SDS011;42141;53.240;6.580;2023-04-25T07:25:11;6.63;;;0.98;;
56233;SDS011;42141;53.240;6.580;2023-04-25T07:27:37;10.32;;;1.10;;
56233;SDS011;42141;53.240;6.580;2023-04-25T07:30:03;9.02;;;1.40;;
56233;SDS011;42141;53.240;6.580;2023-04-25T07:32:29;5.88;;;0.73;;
56233;SDS011;42141;53.240;6.580;2023-04-25T07:34:55;6.10;;;0.85;;
56233;SDS011;42141;53.240;6.580;2023-04-25T07:37:21;7.18;;;1.00;;
56233;SDS011;42141;53.240;6.580;2023-04-25T07:39:46;6.25;;;0.93;;
56233;SDS011;42141;53.240;6.580;2023-04-25T07:42:12;9.60;;;1.83;;
56233;SDS011;42141;53.240;6.580;2023-04-25T07:44:38;11.00;;;1.40;;
56233;SDS011;42141;53.240;6.580;2023-04-25T07:47:05;13.50;;;3.05;;
56233;SDS011;42141;53.240;6.580;2023-04-25T07:49:35;4.82;;;1.25;;
56233;SDS011;42141;53.240;6.580;2023-04-25T07:52:02;5.55;;;0.85;;
56233;SDS011;42141;53.240;6.580;2023-04-25T07:54:28;5.40;;;0.90;;
56233;SDS011;42141;53.240;6.580;2023-04-25T07:56:54;8.48;;;1.95;;
56233;SDS011;42141;53.240;6.580;2023-04-25T07:59:20;10.98;;;1.05;;
56233;SDS011;42141;53.240;6.580;2023-04-25T08:01:46;4.53;;;0.68;;
56233;SDS011;42141;53.240;6.580;2023-04-25T08:04:12;7.30;;;0.80;;
56233;SDS011;42141;53.240;6.580;2023-04-25T08:06:38;8.20;;;1.30;;
56233;SDS011;42141;53.240;6.580;2023-04-25T08:09:04;4.97;;;0.68;;
56233;SDS011;42141;53.240;6.580;2023-04-25T08:11:30;9.80;;;0.70;;
56233;SDS011;42141;53.240;6.580;2023-04-25T08:13:55;3.95;;;0.55;;
56233;SDS011;42141;53.240;6.580;2023-04-25T08:16:21;3.85;;;0.85;;
56233;SDS011;42141;53.240;6.580;2023-04-25T08:18:47;5.63;;;0.75;;
56233;SDS011;42141;53.240;6.580;2023-04-25T08:21:12;4.88;;;0.65;;
56233;SDS011;42141;53.240;6.580;2023-04-25T08:23:38;7.90;;;0.80;;
56233;SDS011;42141;53.240;6.580;2023-04-25T08:26:04;4.38;;;0.43;;
56233;SDS011;42141;53.240;6.580;2023-04-25T08:28:30;2.17;;;0.40;;
56233;SDS011;42141;53.240;6.580;2023-04-25T08:30:56;4.85;;;0.55;;
56233;SDS011;42141;53.240;6.580;2023-04-25T08:33:22;2.05;;;0.35;;
56233;SDS011;42141;53.240;6.580;2023-04-25T08:35:48;5.80;;;0.90;;
56233;SDS011;42141;53.240;6.580;2023-04-25T08:38:14;6.38;;;0.90;;
56233;SDS011;42141;53.240;6.580;2023-04-25T08:40:40;4.80;;;0.80;;
56233;SDS011;42141;53.240;6.580;2023-04-25T08:43:06;2.50;;;0.50;;
56233;SDS011;42141;53.240;6.580;2023-04-25T08:45:39;4.25;;;0.73;;
56233;SDS011;42141;53.240;6.580;2023-04-25T08:48:11;5.82;;;0.73;;
56233;SDS011;42141;53.240;6.580;2023-04-25T08:50:43;2.35;;;0.50;;
56233;SDS011;42141;53.240;6.580;2023-04-25T08:53:15;7.03;;;0.40;;
56233;SDS011;42141;53.240;6.580;2023-04-25T08:55:45;2.70;;;0.55;;
56233;SDS011;42141;53.240;6.580;2023-04-25T08:58:12;6.25;;;0.70;;
56233;SDS011;42141;53.240;6.580;2023-04-25T09:00:39;9.25;;;0.98;;
56233;SDS011;42141;53.240;6.580;2023-04-25T09:03:05;12.68;;;1.08;;
56233;SDS011;42141;53.240;6.580;2023-04-25T09:05:34;6.80;;;1.08;;
56233;SDS011;42141;53.240;6.580;2023-04-25T09:08:00;3.90;;;1.00;;
56233;SDS011;42141;53.240;6.580;2023-04-25T09:10:27;13.70;;;1.08;;
56233;SDS011;42141;53.240;6.580;2023-04-25T09:13:09;9.63;;;1.80;;
56233;SDS011;42141;53.240;6.580;2023-04-25T09:15:48;6.88;;;0.98;;
56233;SDS011;42141;53.240;6.580;2023-04-25T09:18:28;12.07;;;1.25;;
56233;SDS011;42141;53.240;6.580;2023-04-25T09:20:57;9.57;;;1.08;;
56233;SDS011;42141;53.240;6.580;2023-04-25T09:23:40;8.85;;;1.70;;
56233;SDS011;42141;53.240;6.580;2023-04-25T09:26:09;12.50;;;3.08;;
56233;SDS011;42141;53.240;6.580;2023-04-25T09:28:34;9.20;;;1.88;;
56233;SDS011;42141;53.240;6.580;2023-04-25T09:31:01;6.70;;;1.10;;
56233;SDS011;42141;53.240;6.580;2023-04-25T09:33:33;7.97;;;1.25;;
56233;SDS011;42141;53.240;6.580;2023-04-25T09:36:01;11.70;;;1.40;;
56233;SDS011;42141;53.240;6.580;2023-04-25T09:38:30;11.35;;;1.38;;
56233;SDS011;42141;53.240;6.580;2023-04-25T09:41:21;9.52;;;1.63;;
56233;SDS011;42141;53.240;6.580;2023-04-25T09:43:48;17.92;;;1.50;;
56233;SDS011;42141;53.240;6.580;2023-04-25T09:46:15;6.95;;;1.13;;
56233;SDS011;42141;53.240;6.580;2023-04-25T09:48:47;7.68;;;1.38;;
56233;SDS011;42141;53.240;6.580;2023-04-25T09:51:15;5.28;;;0.90;;
56233;SDS011;42141;53.240;6.580;2023-04-25T09:53:44;8.48;;;1.05;;
56233;SDS011;42141;53.240;6.580;2023-04-25T09:56:14;5.75;;;1.10;;
56233;SDS011;42141;53.240;6.580;2023-04-25T09:58:41;9.57;;;1.67;;
56233;SDS011;42141;53.240;6.580;2023-04-25T10:01:08;5.75;;;0.75;;
56233;SDS011;42141;53.240;6.580;2023-04-25T10:03:36;13.75;;;1.95;;
56233;SDS011;42141;53.240;6.580;2023-04-25T10:06:07;8.77;;;1.23;;
56233;SDS011;42141;53.240;6.580;2023-04-25T10:08:37;9.65;;;1.42;;
56233;SDS011;42141;53.240;6.580;2023-04-25T10:11:04;11.63;;;1.88;;
56233;SDS011;42141;53.240;6.580;2023-04-25T10:13:32;8.80;;;0.80;;
56233;SDS011;42141;53.240;6.580;2023-04-25T10:16:01;3.03;;;0.63;;
56233;SDS011;42141;53.240;6.580;2023-04-25T10:18:29;8.93;;;0.80;;
56233;SDS011;42141;53.240;6.580;2023-04-25T10:20:59;7.68;;;1.00;;
56233;SDS011;42141;53.240;6.580;2023-04-25T10:23:26;13.25;;;1.67;;
56233;SDS011;42141;53.240;6.580;2023-04-25T10:25:54;5.00;;;1.00;;
56233;SDS011;42141;53.240;6.580;2023-04-25T10:28:20;10.10;;;1.00;;
56233;SDS011;42141;53.240;6.580;2023-04-25T10:33:35;9.15;;;1.02;;
56233;SDS011;42141;53.240;6.580;2023-04-25T10:36:12;9.13;;;1.58;;
56233;SDS011;42141;53.240;6.580;2023-04-25T10:38:39;10.07;;;1.15;;
56233;SDS011;42141;53.240;6.580;2023-04-25T10:41:05;7.45;;;0.73;;
56233;SDS011;42141;53.240;6.580;2023-04-25T10:43:34;14.57;;;1.40;;
56233;SDS011;42141;53.240;6.580;2023-04-25T10:49:00;7.78;;;1.00;;
56233;SDS011;42141;53.240;6.580;2023-04-25T10:51:28;6.00;;;0.77;;
56233;SDS011;42141;53.240;6.580;2023-04-25T10:54:00;6.35;;;1.23;;
56233;SDS011;42141;53.240;6.580;2023-04-25T10:56:37;6.28;;;0.82;;
56233;SDS011;42141;53.240;6.580;2023-04-25T10:59:12;6.13;;;1.02;;
56233;SDS011;42141;53.240;6.580;2023-04-25T11:01:40;7.25;;;1.52;;
56233;SDS011;42141;53.240;6.580;2023-04-25T11:04:32;5.75;;;1.20;;
56233;SDS011;42141;53.240;6.580;2023-04-25T11:09:27;12.00;;;1.33;;
56233;SDS011;42141;53.240;6.580;2023-04-25T11:11:54;9.15;;;1.52;;
56233;SDS011;42141;53.240;6.580;2023-04-25T11:14:20;3.53;;;0.50;;
56233;SDS011;42141;53.240;6.580;2023-04-25T11:16:47;6.43;;;0.95;;
56233;SDS011;42141;53.240;6.580;2023-04-25T11:19:12;6.82;;;0.82;;
56233;SDS011;42141;53.240;6.580;2023-04-25T11:21:38;5.07;;;0.65;;
56233;SDS011;42141;53.240;6.580;2023-04-25T11:24:04;5.30;;;0.90;;
56233;SDS011;42141;53.240;6.580;2023-04-25T11:26:30;4.50;;;0.93;;
56233;SDS011;42141;53.240;6.580;2023-04-25T11:28:59;6.75;;;1.10;;
56233;SDS011;42141;53.240;6.580;2023-04-25T11:31:28;6.70;;;1.10;;
56233;SDS011;42141;53.240;6.580;2023-04-25T11:33:54;9.30;;;1.15;;
56233;SDS011;42141;53.240;6.580;2023-04-25T11:36:23;12.00;;;1.42;;
56233;SDS011;42141;53.240;6.580;2023-04-25T11:38:50;8.05;;;1.30;;
56233;SDS011;42141;53.240;6.580;2023-04-25T11:41:17;11.55;;;1.35;;
56233;SDS011;42141;53.240;6.580;2023-04-25T11:43:43;5.68;;;1.05;;
56233;SDS011;42141;53.240;6.580;2023-04-25T11:46:09;9.45;;;1.42;;
56233;SDS011;42141;53.240;6.580;2023-04-25T11:48:39;8.68;;;0.88;;
56233;SDS011;42141;53.240;6.580;2023-04-25T11:51:08;8.43;;;1.35;;
56233;SDS011;42141;53.240;6.580;2023-04-25T11:53:34;5.45;;;1.08;;
56233;SDS011;42141;53.240;6.580;2023-04-25T11:56:00;11.10;;;1.65;;
56233;SDS011;42141;53.240;6.580;2023-04-25T11:58:26;8.55;;;0.80;;
56233;SDS011;42141;53.240;6.580;2023-04-25T12:00:52;3.47;;;0.73;;
56233;SDS011;42141;53.240;6.580;2023-04-25T12:03:18;6.05;;;1.00;;
56233;SDS011;42141;53.240;6.580;2023-04-25T12:05:45;7.65;;;1.33;;
56233;SDS011;42141;53.240;6.580;2023-04-25T12:10:41;4.35;;;1.02;;
56233;SDS011;42141;53.240;6.580;2023-04-25T12:16:03;6.97;;;1.10;;
56233;SDS011;42141;53.240;6.580;2023-04-25T12:18:29;9.93;;;1.52;;
56233;SDS011;42141;53.240;6.580;2023-04-25T12:20:55;9.23;;;1.20;;
56233;SDS011;42141;53.240;6.580;2023-04-25T12:23:25;4.38;;;0.80;;
56233;SDS011;42141;53.240;6.580;2023-04-25T12:25:53;4.28;;;0.82;;
56233;SDS011;42141;53.240;6.580;2023-04-25T12:28:20;9.27;;;2.00;;
56233;SDS011;42141;53.240;6.580;2023-04-25T12:30:55;8.85;;;1.02;;
56233;SDS011;42141;53.240;6.580;2023-04-25T12:33:35;8.45;;;0.98;;
56233;SDS011;42141;53.240;6.580;2023-04-25T12:36:03;12.68;;;1.20;;
56233;SDS011;42141;53.240;6.580;2023-04-25T12:38:37;9.20;;;1.45;;
56233;SDS011;42141;53.240;6.580;2023-04-25T12:41:04;10.07;;;1.20;;
56233;SDS011;42141;53.240;6.580;2023-04-25T12:43:30;7.53;;;1.20;;
56233;SDS011;42141;53.240;6.580;2023-04-25T12:45:56;13.00;;;1.17;;
56233;SDS011;42141;53.240;6.580;2023-04-25T12:48:22;6.38;;;1.38;;
56233;SDS011;42141;53.240;6.580;2023-04-25T12:50:48;5.05;;;0.75;;
56233;SDS011;42141;53.240;6.580;2023-04-25T12:53:22;12.48;;;1.27;;
56233;SDS011;42141;53.240;6.580;2023-04-25T12:55:49;12.70;;;1.48;;
56233;SDS011;42141;53.240;6.580;2023-04-25T12:58:16;12.88;;;2.72;;
56233;SDS011;42141;53.240;6.580;2023-04-25T13:00:43;8.50;;;0.88;;
56233;SDS011;42141;53.240;6.580;2023-04-25T13:03:10;6.53;;;1.30;;
56233;SDS011;42141;53.240;6.580;2023-04-25T13:05:37;6.85;;;0.82;;
56233;SDS011;42141;53.240;6.580;2023-04-25T13:08:03;4.90;;;0.90;;
56233;SDS011;42141;53.240;6.580;2023-04-25T13:10:29;3.35;;;0.80;;
56233;SDS011;42141;53.240;6.580;2023-04-25T13:12:55;3.90;;;0.90;;
56233;SDS011;42141;53.240;6.580;2023-04-25T13:15:21;4.35;;;0.75;;
56233;SDS011;42141;53.240;6.580;2023-04-25T13:17:47;9.27;;;0.90;;
56233;SDS011;42141;53.240;6.580;2023-04-25T13:20:12;6.80;;;1.02;;
56233;SDS011;42141;53.240;6.580;2023-04-25T13:22:39;6.95;;;1.25;;
56233;SDS011;42141;53.240;6.580;2023-04-25T13:25:06;5.03;;;0.80;;
56233;SDS011;42141;53.240;6.580;2023-04-25T13:27:33;9.27;;;0.90;;
56233;SDS011;42141;53.240;6.580;2023-04-25T13:30:00;7.10;;;1.23;;
56233;SDS011;42141;53.240;6.580;2023-04-25T13:32:32;7.50;;;1.00;;
56233;SDS011;42141;53.240;6.580;2023-04-25T13:34:58;6.15;;;1.13;;
56233;SDS011;42141;53.240;6.580;2023-04-25T13:37:24;13.05;;;1.52;;
56233;SDS011;42141;53.240;6.580;2023-04-25T13:39:50;8.25;;;1.38;;
56233;SDS011;42141;53.240;6.580;2023-04-25T13:42:16;7.47;;;0.98;;
56233;SDS011;42141;53.240;6.580;2023-04-25T13:44:41;10.50;;;1.27;;
56233;SDS011;42141;53.240;6.580;2023-04-25T13:47:07;9.43;;;2.08;;
56233;SDS011;42141;53.240;6.580;2023-04-25T13:49:33;5.32;;;0.65;;
56233;SDS011;42141;53.240;6.580;2023-04-25T13:51:58;4.68;;;0.80;;
56233;SDS011;42141;53.240;6.580;2023-04-25T13:54:24;7.13;;;0.90;;
56233;SDS011;42141;53.240;6.580;2023-04-25T13:56:50;5.82;;;0.63;;
56233;SDS011;42141;53.240;6.580;2023-04-25T13:59:17;6.22;;;1.48;;
56233;SDS011;42141;53.240;6.580;2023-04-25T14:01:43;11.77;;;1.33;;
56233;SDS011;42141;53.240;6.580;2023-04-25T14:04:08;11.40;;;1.67;;
56233;SDS011;42141;53.240;6.580;2023-04-25T14:06:34;6.50;;;0.95;;
56233;SDS011;42141;53.240;6.580;2023-04-25T14:09:00;11.30;;;0.95;;
56233;SDS011;42141;53.240;6.580;2023-04-25T14:11:26;7.82;;;2.42;;
56233;SDS011;42141;53.240;6.580;2023-04-25T14:13:52;8.45;;;1.02;;
56233;SDS011;42141;53.240;6.580;2023-04-25T14:16:17;5.18;;;0.93;;
56233;SDS011;42141;53.240;6.580;2023-04-25T14:18:43;3.92;;;1.08;;
56233;SDS011;42141;53.240;6.580;2023-04-25T14:21:09;3.60;;;0.50;;
56233;SDS011;42141;53.240;6.580;2023-04-25T14:23:35;7.10;;;1.50;;
56233;SDS011;42141;53.240;6.580;2023-04-25T14:26:00;6.78;;;1.27;;
56233;SDS011;42141;53.240;6.580;2023-04-25T14:28:27;7.38;;;0.63;;
56233;SDS011;42141;53.240;6.580;2023-04-25T14:30:52;6.80;;;1.00;;
56233;SDS011;42141;53.240;6.580;2023-04-25T14:33:18;9.70;;;1.05;;
56233;SDS011;42141;53.240;6.580;2023-04-25T14:35:45;9.07;;;1.52;;
56233;SDS011;42141;53.240;6.580;2023-04-25T14:38:11;8.07;;;1.05;;
56233;SDS011;42141;53.240;6.580;2023-04-25T14:40:37;10.95;;;1.05;;
56233;SDS011;42141;53.240;6.580;2023-04-25T14:43:03;6.72;;;1.83;;
56233;SDS011;42141;53.240;6.580;2023-04-25T14:45:28;4.53;;;1.70;;
56233;SDS011;42141;53.240;6.580;2023-04-25T14:47:54;3.85;;;0.63;;
56233;SDS011;42141;53.240;6.580;2023-04-25T14:50:20;2.33;;;0.52;;
56233;SDS011;42141;53.240;6.580;2023-04-25T14:52:46;10.68;;;0.90;;